Time;durP1;ratioP1;P1;durP2;ratioP2;P2;SDS_P1;SDS_P2;PMS_P1;PMS_P2;Temp;Humidity;BMP_temperature;BMP_pressure;BME280_temperature;BME280_humidity;BME280_pressure;Samples;Min_cycle;Max_cycle;Signal;HPM_P1;HPM_P2
2023/06/01 00:01:47;;;;;;;8.20;3.33;;;;;;;;;;5095407;28;20099;-72
2023/06/01 00:04:13;;;;;;;9.07;3.67;;;;;;;;;;5095434;28;20031;-72
2023/06/01 00:06:39;;;;;;;9.45;4.03;;;;;;;;;;5095460;28;20111;-72
2023/06/01 00:09:06;;;;;;;7.25;4.10;;;;;;;;;;5095407;28;20506;-72
2023/06/01 00:11:32;;;;;;;13.18;4.53;;;;;;;;;;5095378;28;20043;-72
2023/06/01 00:13:58;;;;;;;8.90;4.57;;;;;;;;;;5077233;28;20032;-72
2023/06/01 00:16:24;;;;;;;11.55;4.82;;;;;;;;;;5095229;28;20332;-72
2023/06/01 00:18:53;;;;;;;14.25;5.63;;;;;;;;;;5095174;28;20072;-72
2023/06/01 00:21:19;;;;;;;10.32;5.47;;;;;;;;;;5095081;28;20032;-72
2023/06/01 00:23:46;;;;;;;8.75;5.45;;;;;;;;;;5095063;28;20388;-72
2023/06/01 00:26:12;;;;;;;8.55;3.80;;;;;;;;;;5095063;28;20057;-72
2023/06/01 00:28:38;;;;;;;14.40;4.80;;;;;;;;;;5094983;28;20016;-72
2023/06/01 00:31:04;;;;;;;10.73;4.65;;;;;;;;;;5094867;28;20028;-72
2023/06/01 00:33:30;;;;;;;7.25;3.65;;;;;;;;;;5094801;28;20111;-72
2023/06/01 00:35:56;;;;;;;7.63;3.03;;;;;;;;;;5094810;28;20043;-72
2023/06/01 00:38:22;;;;;;;14.98;5.13;;;;;;;;;;5094799;28;20028;-72
2023/06/01 00:40:50;;;;;;;9.05;4.05;;;;;;;;;;5094779;28;20028;-72
2023/06/01 00:43:22;;;;;;;11.07;4.65;;;;;;;;;;5094976;28;20060;-72
2023/06/01 00:45:49;;;;;;;10.50;4.60;;;;;;;;;;5094725;28;20058;-72
2023/06/01 00:48:16;;;;;;;10.32;4.18;;;;;;;;;;5093303;28;20087;-72
2023/06/01 00:50:42;;;;;;;6.22;2.90;;;;;;;;;;5094500;28;20040;-72
2023/06/01 00:53:10;;;;;;;9.30;3.63;;;;;;;;;;5094466;28;20107;-72
2023/06/01 00:55:37;;;;;;;11.52;4.60;;;;;;;;;;5094470;28;20028;-72
2023/06/01 00:58:03;;;;;;;8.13;4.28;;;;;;;;;;5094417;28;20055;-72
2023/06/01 01:00:29;;;;;;;8.23;3.05;;;;;;;;;;5094370;28;20035;-72
2023/06/01 01:02:56;;;;;;;9.07;4.43;;;;;;;;;;5094213;28;20078;-72
2023/06/01 01:05:26;;;;;;;9.73;3.97;;;;;;;;;;5094475;28;20359;-72
2023/06/01 01:07:56;;;;;;;9.67;3.57;;;;;;;;;;5094713;28;20466;-72
2023/06/01 01:10:22;;;;;;;4.72;2.05;;;;;;;;;;5094278;28;20277;-72
2023/06/01 01:12:48;;;;;;;11.25;4.80;;;;;;;;;;5075825;28;20076;-72
2023/06/01 01:15:24;;;;;;;7.38;3.60;;;;;;;;;;5094039;28;20027;-72
2023/06/01 01:17:52;;;;;;;9.50;3.10;;;;;;;;;;5094352;28;20047;-72
2023/06/01 01:20:44;;;;;;;7.65;3.38;;;;;;;;;;5094033;28;20028;-72
2023/06/01 01:23:19;;;;;;;9.50;3.95;;;;;;;;;;5090134;28;20044;-72
2023/06/01 01:26:04;;;;;;;11.65;4.68;;;;;;;;;;5093920;28;20020;-72
2023/06/01 01:28:36;;;;;;;10.35;4.75;;;;;;;;;;5093770;28;20421;-72
2023/06/01 01:31:03;;;;;;;7.70;4.25;;;;;;;;;;5093787;28;20036;-72
2023/06/01 01:33:30;;;;;;;13.05;6.07;;;;;;;;;;5093611;28;20036;-72
2023/06/01 01:35:56;;;;;;;12.82;3.92;;;;;;;;;;5093647;28;20022;-72
2023/06/01 01:38:22;;;;;;;8.88;4.88;;;;;;;;;;5093665;28;20095;-72
2023/06/01 01:40:52;;;;;;;7.45;4.18;;;;;;;;;;5093582;28;20443;-72
2023/06/01 01:43:18;;;;;;;8.00;4.82;;;;;;;;;;5093861;28;20031;-72
2023/06/01 01:45:46;;;;;;;11.10;5.13;;;;;;;;;;5093591;28;20016;-72
2023/06/01 01:48:19;;;;;;;12.52;5.80;;;;;;;;;;5071664;28;20060;-72
2023/06/01 01:50:51;;;;;;;10.88;4.63;;;;;;;;;;5073282;28;20107;-72
2023/06/01 01:53:17;;;;;;;11.68;4.65;;;;;;;;;;5073125;28;20043;-73
2023/06/01 01:55:44;;;;;;;9.35;3.40;;;;;;;;;;5073012;28;20410;-73
2023/06/01 01:58:11;;;;;;;10.15;3.92;;;;;;;;;;5072962;28;20348;-73
2023/06/01 02:00:37;;;;;;;10.50;2.72;;;;;;;;;;5072959;28;20020;-72
2023/06/01 02:03:03;;;;;;;6.28;3.33;;;;;;;;;;5072958;28;20490;-73
2023/06/01 02:05:29;;;;;;;8.07;3.60;;;;;;;;;;5072849;28;20025;-73
2023/06/01 02:07:55;;;;;;;6.95;3.42;;;;;;;;;;5072498;28;20036;-73
2023/06/01 02:10:21;;;;;;;6.00;3.45;;;;;;;;;;5072685;28;20459;-73
2023/06/01 02:12:47;;;;;;;7.57;2.40;;;;;;;;;;5071274;28;20113;-72
2023/06/01 02:15:13;;;;;;;10.15;3.97;;;;;;;;;;5073058;28;20056;-72
2023/06/01 02:17:40;;;;;;;6.88;2.55;;;;;;;;;;5072692;28;20490;-72
2023/06/01 02:20:06;;;;;;;9.55;3.85;;;;;;;;;;5072994;28;20017;-72
2023/06/01 02:22:32;;;;;;;4.13;1.98;;;;;;;;;;5072638;28;20451;-73
2023/06/01 02:24:58;;;;;;;8.25;3.22;;;;;;;;;;5072556;28;20035;-73
2023/06/01 02:27:25;;;;;;;4.10;2.85;;;;;;;;;;5072651;28;20032;-72
2023/06/01 02:29:51;;;;;;;7.38;2.80;;;;;;;;;;5072818;28;20021;-73
2023/06/01 02:32:17;;;;;;;6.90;3.38;;;;;;;;;;5072562;28;20107;-73
2023/06/01 02:34:43;;;;;;;4.15;1.85;;;;;;;;;;5072422;28;20112;-73
2023/06/01 02:37:09;;;;;;;4.43;2.63;;;;;;;;;;5072482;28;20025;-72
2023/06/01 02:39:35;;;;;;;7.40;2.65;;;;;;;;;;5072408;28;20020;-72
2023/06/01 02:42:09;;;;;;;6.22;2.95;;;;;;;;;;5072607;28;20049;-73
2023/06/01 02:44:35;;;;;;;5.93;3.00;;;;;;;;;;5072326;28;20029;-72
2023/06/01 02:47:08;;;;;;;6.18;2.90;;;;;;;;;;5075859;28;20075;-73
2023/06/01 02:49:34;;;;;;;7.35;3.50;;;;;;;;;;5092384;28;20039;-73
2023/06/01 02:51:59;;;;;;;8.07;4.20;;;;;;;;;;5092500;28;20123;-72
2023/06/01 02:54:25;;;;;;;8.90;3.40;;;;;;;;;;5092536;28;20032;-73
2023/06/01 02:56:51;;;;;;;7.45;3.45;;;;;;;;;;5092507;28;20020;-73
2023/06/01 02:59:17;;;;;;;8.95;4.60;;;;;;;;;;5092478;28;20133;-72
2023/06/01 03:01:43;;;;;;;8.05;3.67;;;;;;;;;;5092460;28;20020;-72
2023/06/01 03:04:10;;;;;;;7.97;3.17;;;;;;;;;;5092263;28;20382;-72
2023/06/01 03:06:37;;;;;;;3.08;2.10;;;;;;;;;;5092664;28;20020;-73
2023/06/01 03:09:03;;;;;;;9.02;3.90;;;;;;;;;;5092713;28;20459;-73
2023/06/01 03:11:29;;;;;;;5.80;3.78;;;;;;;;;;5092203;28;20024;-73
2023/06/01 03:13:56;;;;;;;8.43;3.15;;;;;;;;;;5092173;28;20028;-73
2023/06/01 03:16:23;;;;;;;7.90;3.70;;;;;;;;;;5092552;28;20017;-73
2023/06/01 03:18:49;;;;;;;7.90;3.78;;;;;;;;;;5092230;28;20062;-72
2023/06/01 03:21:16;;;;;;;7.57;3.53;;;;;;;;;;5094378;28;20055;-72
2023/06/01 03:23:43;;;;;;;6.63;3.72;;;;;;;;;;5096587;28;20020;-72
2023/06/01 03:26:12;;;;;;;5.07;2.50;;;;;;;;;;5096454;28;20020;-72
2023/06/01 03:28:39;;;;;;;10.95;3.35;;;;;;;;;;5095949;28;20047;-72
2023/06/01 03:31:06;;;;;;;6.15;3.17;;;;;;;;;;5095944;28;20031;-73
2023/06/01 03:33:32;;;;;;;4.00;2.20;;;;;;;;;;5095980;28;20032;-73
2023/06/01 03:35:58;;;;;;;8.70;2.92;;;;;;;;;;5096084;28;20047;-73
2023/06/01 03:38:24;;;;;;;5.22;2.40;;;;;;;;;;5096108;28;20024;-72
2023/06/01 03:40:50;;;;;;;8.15;3.17;;;;;;;;;;5096055;28;20036;-73
2023/06/01 03:43:15;;;;;;;6.18;2.92;;;;;;;;;;5096316;28;20028;-72
2023/06/01 03:45:41;;;;;;;5.88;2.03;;;;;;;;;;5096077;28;20059;-72
2023/06/01 03:48:14;;;;;;;5.32;2.13;;;;;;;;;;5095577;28;20044;-73
2023/06/01 03:50:40;;;;;;;4.60;2.40;;;;;;;;;;5095803;28;20032;-73
2023/06/01 03:53:06;;;;;;;5.38;2.80;;;;;;;;;;5095928;28;20101;-73
2023/06/01 03:55:39;;;;;;;6.22;3.20;;;;;;;;;;5095624;28;20447;-73
2023/06/01 03:58:07;;;;;;;7.57;2.80;;;;;;;;;;5095588;28;20028;-72
2023/06/01 04:00:33;;;;;;;5.40;2.67;;;;;;;;;;5096050;28;20051;-73
2023/06/01 04:03:00;;;;;;;6.75;2.67;;;;;;;;;;5095381;28;20056;-73
2023/06/01 04:05:26;;;;;;;5.63;2.92;;;;;;;;;;5095458;28;20050;-73
2023/06/01 04:07:53;;;;;;;4.80;2.10;;;;;;;;;;5095424;28;20474;-73
2023/06/01 04:10:20;;;;;;;8.48;2.97;;;;;;;;;;5095471;28;20355;-72
2023/06/01 04:12:48;;;;;;;6.57;2.83;;;;;;;;;;5095253;28;20023;-73
2023/06/01 04:15:15;;;;;;;8.02;2.97;;;;;;;;;;5077066;28;20057;-73
2023/06/01 04:17:42;;;;;;;9.40;3.08;;;;;;;;;;5095540;28;20485;-73
2023/06/01 04:20:10;;;;;;;7.40;2.42;;;;;;;;;;5095263;28;20493;-73
2023/06/01 04:22:36;;;;;;;9.60;3.10;;;;;;;;;;5095283;28;20027;-73
2023/06/01 04:25:03;;;;;;;8.45;2.95;;;;;;;;;;5095020;28;20477;-72
2023/06/01 04:27:29;;;;;;;6.40;2.80;;;;;;;;;;5095004;28;20457;-73
2023/06/01 04:29:57;;;;;;;6.28;2.22;;;;;;;;;;5093624;28;20020;-72
2023/06/01 04:32:23;;;;;;;5.88;2.72;;;;;;;;;;5094774;28;20087;-73
2023/06/01 04:34:49;;;;;;;4.78;1.98;;;;;;;;;;5114353;28;20036;-73
2023/06/01 04:37:21;;;;;;;6.22;2.15;;;;;;;;;;5115090;28;20408;-73
2023/06/01 04:39:51;;;;;;;4.80;1.88;;;;;;;;;;5115176;28;20032;-73
2023/06/01 04:42:18;;;;;;;5.15;2.05;;;;;;;;;;5100619;28;20020;-73
2023/06/01 04:44:49;;;;;;;6.05;2.90;;;;;;;;;;5076846;28;20034;-73
2023/06/01 04:47:16;;;;;;;8.05;3.80;;;;;;;;;;5093590;28;20455;-73
2023/06/01 04:49:43;;;;;;;7.68;2.70;;;;;;;;;;5094881;28;20347;-73
2023/06/01 04:52:12;;;;;;;4.55;1.50;;;;;;;;;;5094627;28;20025;-73
2023/06/01 04:54:38;;;;;;;9.05;2.17;;;;;;;;;;5094447;28;20024;-73
2023/06/01 04:57:08;;;;;;;5.70;2.28;;;;;;;;;;5094379;28;20639;-73
2023/06/01 04:59:34;;;;;;;6.32;2.50;;;;;;;;;;5094532;28;20052;-73
2023/06/01 05:02:00;;;;;;;4.38;2.03;;;;;;;;;;5094446;28;20453;-73
2023/06/01 05:04:26;;;;;;;4.95;1.92;;;;;;;;;;5094224;28;20096;-73
2023/06/01 05:06:52;;;;;;;5.47;2.05;;;;;;;;;;5094559;28;20030;-73
2023/06/01 05:09:18;;;;;;;4.55;2.85;;;;;;;;;;5094253;28;20063;-73
2023/06/01 05:11:44;;;;;;;6.43;2.40;;;;;;;;;;5094193;28;20056;-73
2023/06/01 05:14:10;;;;;;;3.78;2.00;;;;;;;;;;5094120;28;20028;-73
2023/06/01 05:16:36;;;;;;;6.68;2.05;;;;;;;;;;5094082;28;20370;-73
2023/06/01 05:19:03;;;;;;;5.15;2.20;;;;;;;;;;5094053;28;20028;-74
2023/06/01 05:21:31;;;;;;;4.95;2.38;;;;;;;;;;5093989;28;20028;-73
2023/06/01 05:23:57;;;;;;;6.97;2.70;;;;;;;;;;5094315;28;20089;-73
2023/06/01 05:26:23;;;;;;;5.45;3.00;;;;;;;;;;5093928;28;20371;-73
2023/06/01 05:28:49;;;;;;;5.35;1.88;;;;;;;;;;5093784;28;20035;-73
2023/06/01 05:31:16;;;;;;;7.68;1.88;;;;;;;;;;5075630;28;20117;-74
2023/06/01 05:33:42;;;;;;;4.70;2.00;;;;;;;;;;5093921;28;20039;-73
2023/06/01 05:36:09;;;;;;;7.30;2.80;;;;;;;;;;5093741;28;20028;-73
2023/06/01 05:38:36;;;;;;;8.65;3.13;;;;;;;;;;5093897;28;20012;-73
2023/06/01 05:41:02;;;;;;;4.00;1.83;;;;;;;;;;5093941;28;20024;-73
2023/06/01 05:43:28;;;;;;;4.60;2.20;;;;;;;;;;5092870;28;20024;-74
2023/06/01 05:45:54;;;;;;;8.82;2.95;;;;;;;;;;5093481;28;20541;-73
2023/06/01 05:48:21;;;;;;;6.35;2.80;;;;;;;;;;5093166;28;20047;-74
2023/06/01 05:50:47;;;;;;;5.22;2.78;;;;;;;;;;5093414;28;20432;-73
2023/06/01 05:53:13;;;;;;;9.95;3.50;;;;;;;;;;5093342;28;20103;-73
2023/06/01 05:55:40;;;;;;;7.30;2.60;;;;;;;;;;5093359;28;20020;-74
2023/06/01 05:58:06;;;;;;;4.22;1.92;;;;;;;;;;5093535;28;20039;-73
2023/06/01 06:00:35;;;;;;;5.25;2.47;;;;;;;;;;5093261;28;20032;-73
2023/06/01 06:03:01;;;;;;;9.50;3.63;;;;;;;;;;5074868;28;20035;-74
2023/06/01 06:05:27;;;;;;;8.65;3.40;;;;;;;;;;5093030;28;20055;-73
2023/06/01 06:07:53;;;;;;;2.97;1.65;;;;;;;;;;5093141;28;20055;-74
2023/06/01 06:10:19;;;;;;;4.63;2.25;;;;;;;;;;5092986;28;20055;-74
2023/06/01 06:12:45;;;;;;;4.72;2.33;;;;;;;;;;5093298;28;20035;-73
2023/06/01 06:15:11;;;;;;;5.45;1.98;;;;;;;;;;5093184;28;20028;-73
2023/06/01 06:17:37;;;;;;;7.88;2.58;;;;;;;;;;5092891;28;20031;-74
2023/06/01 06:20:07;;;;;;;3.58;2.00;;;;;;;;;;5092898;28;20020;-74
2023/06/01 06:22:33;;;;;;;6.43;2.60;;;;;;;;;;5093262;28;20023;-73
2023/06/01 06:24:59;;;;;;;4.43;2.28;;;;;;;;;;5092871;28;20478;-73
2023/06/01 06:27:25;;;;;;;6.45;3.10;;;;;;;;;;5092740;28;20030;-73
2023/06/01 06:29:51;;;;;;;8.23;3.05;;;;;;;;;;5092704;28;20024;-74
2023/06/01 06:32:19;;;;;;;8.68;3.05;;;;;;;;;;5092876;28;20024;-74
2023/06/01 06:34:45;;;;;;;9.25;2.45;;;;;;;;;;5072890;28;20032;-74
2023/06/01 06:37:11;;;;;;;3.13;1.88;;;;;;;;;;5072374;28;20027;-73
2023/06/01 06:39:39;;;;;;;2.67;1.63;;;;;;;;;;5072599;28;20528;-74
2023/06/01 06:42:05;;;;;;;4.25;1.60;;;;;;;;;;5078134;28;20398;-74
2023/06/01 06:44:32;;;;;;;3.42;1.88;;;;;;;;;;5092660;28;20035;-74
2023/06/01 06:46:59;;;;;;;8.43;2.58;;;;;;;;;;5091449;28;20410;-74
2023/06/01 06:49:26;;;;;;;4.75;2.10;;;;;;;;;;5092920;28;20051;-73
2023/06/01 06:51:52;;;;;;;6.95;2.60;;;;;;;;;;5092807;28;20046;-73
2023/06/01 06:54:18;;;;;;;5.28;2.42;;;;;;;;;;5092208;28;20040;-73
2023/06/01 06:56:44;;;;;;;5.20;2.53;;;;;;;;;;5092569;28;20027;-74
2023/06/01 06:59:10;;;;;;;5.28;2.30;;;;;;;;;;5092706;28;20032;-74
2023/06/01 07:01:37;;;;;;;5.28;1.83;;;;;;;;;;5091131;28;20032;-74
2023/06/01 07:04:04;;;;;;;1.75;1.10;;;;;;;;;;5092598;28;20057;-74
2023/06/01 07:06:30;;;;;;;5.47;2.58;;;;;;;;;;5092423;28;20047;-74
2023/06/01 07:08:56;;;;;;;7.63;1.33;;;;;;;;;;5092299;28;20381;-74
2023/06/01 07:11:23;;;;;;;2.08;1.08;;;;;;;;;;5092336;28;20070;-74
2023/06/01 07:13:49;;;;;;;6.80;1.50;;;;;;;;;;5092552;28;20071;-74
2023/06/01 07:16:15;;;;;;;8.00;3.70;;;;;;;;;;5092518;28;20060;-74
2023/06/01 07:18:41;;;;;;;1.83;0.80;;;;;;;;;;5092532;28;20024;-74
2023/06/01 07:21:07;;;;;;;5.43;1.88;;;;;;;;;;5092294;28;20031;-74
2023/06/01 07:23:33;;;;;;;3.17;1.58;;;;;;;;;;5092249;28;20077;-74
2023/06/01 07:26:00;;;;;;;2.53;1.05;;;;;;;;;;5092256;28;20059;-74
2023/06/01 07:28:26;;;;;;;5.25;1.67;;;;;;;;;;5092551;28;20458;-74
2023/06/01 07:30:53;;;;;;;6.88;1.95;;;;;;;;;;5092766;28;20022;-74
2023/06/01 07:33:20;;;;;;;6.10;1.80;;;;;;;;;;5092121;28;20067;-74
2023/06/01 07:35:46;;;;;;;4.57;1.23;;;;;;;;;;5092440;28;20073;-73
2023/06/01 07:38:12;;;;;;;3.65;1.80;;;;;;;;;;5092088;28;20434;-74
2023/06/01 07:40:38;;;;;;;3.78;1.65;;;;;;;;;;5092184;28;20654;-74
2023/06/01 07:43:04;;;;;;;3.67;1.30;;;;;;;;;;5092146;28;20042;-74
2023/06/01 07:45:30;;;;;;;3.85;1.60;;;;;;;;;;5092060;28;20076;-74
2023/06/01 07:47:56;;;;;;;1.70;1.15;;;;;;;;;;5090713;28;20131;-74
2023/06/01 07:50:28;;;;;;;1.92;1.35;;;;;;;;;;5092037;28;20646;-74
2023/06/01 07:52:54;;;;;;;3.88;1.60;;;;;;;;;;5092258;28;20017;-74
2023/06/01 07:55:19;;;;;;;5.63;1.98;;;;;;;;;;5091977;28;20028;-74
2023/06/01 07:57:46;;;;;;;5.72;2.10;;;;;;;;;;5091908;28;20073;-74
2023/06/01 08:00:12;;;;;;;4.97;1.83;;;;;;;;;;5092202;28;20111;-74
2023/06/01 08:02:39;;;;;;;1.67;1.50;;;;;;;;;;5091759;28;20102;-74
2023/06/01 08:05:05;;;;;;;2.13;0.95;;;;;;;;;;5091814;28;20032;-74
2023/06/01 08:07:31;;;;;;;3.42;1.42;;;;;;;;;;5094124;28;20032;-74
2023/06/01 08:09:58;;;;;;;4.10;1.48;;;;;;;;;;5095355;28;20042;-74
2023/06/01 08:12:26;;;;;;;4.40;1.15;;;;;;;;;;5095588;28;20109;-74
2023/06/01 08:14:52;;;;;;;5.22;1.30;;;;;;;;;;5095569;28;20077;-74
2023/06/01 08:17:18;;;;;;;4.85;1.48;;;;;;;;;;5095308;28;20020;-74
2023/06/01 08:19:45;;;;;;;7.05;1.10;;;;;;;;;;5095302;28;20425;-74
2023/06/01 08:22:14;;;;;;;7.43;1.75;;;;;;;;;;5095124;28;20024;-74
2023/06/01 08:24:40;;;;;;;6.38;1.27;;;;;;;;;;5095287;28;20031;-74
2023/06/01 08:27:28;;;;;;;3.70;1.65;;;;;;;;;;5095385;28;20535;-74
2023/06/01 08:29:54;;;;;;;4.45;1.98;;;;;;;;;;5075111;28;20072;-74
2023/06/01 08:32:20;;;;;;;2.65;1.30;;;;;;;;;;5074789;28;20238;-74
2023/06/01 08:34:47;;;;;;;4.47;1.35;;;;;;;;;;5074621;28;20040;-74
2023/06/01 08:37:13;;;;;;;7.22;2.20;;;;;;;;;;5074692;28;20021;-73
2023/06/01 08:39:40;;;;;;;6.40;1.92;;;;;;;;;;5074629;28;20103;-74
2023/06/01 08:42:08;;;;;;;1.92;1.40;;;;;;;;;;5074795;28;20023;-74
2023/06/01 08:44:39;;;;;;;4.68;1.67;;;;;;;;;;5074618;28;20524;-74
2023/06/01 08:47:05;;;;;;;6.05;2.50;;;;;;;;;;5073962;28;20048;-74
2023/06/01 08:49:32;;;;;;;5.07;1.77;;;;;;;;;;5074455;28;20024;-74
2023/06/01 08:52:00;;;;;;;3.15;1.13;;;;;;;;;;5074369;28;20112;-73
2023/06/01 08:54:26;;;;;;;5.47;1.50;;;;;;;;;;5074365;28;20410;-74
2023/06/01 08:56:52;;;;;;;5.65;1.48;;;;;;;;;;5074328;28;20078;-74
2023/06/01 08:59:18;;;;;;;6.43;2.45;;;;;;;;;;5074164;28;20025;-73
2023/06/01 09:01:46;;;;;;;6.03;2.25;;;;;;;;;;5074186;28;20372;-74
2023/06/01 09:04:13;;;;;;;5.28;1.63;;;;;;;;;;5074026;28;20077;-74
2023/06/01 09:06:39;;;;;;;3.88;1.25;;;;;;;;;;5074406;28;20021;-74
2023/06/01 09:09:10;;;;;;;4.65;2.08;;;;;;;;;;5086354;28;20028;-74
2023/06/01 09:11:36;;;;;;;4.53;2.10;;;;;;;;;;5094352;28;20016;-73
2023/06/01 09:14:03;;;;;;;10.55;3.17;;;;;;;;;;5094119;28;20110;-74
2023/06/01 09:16:36;;;;;;;8.52;2.05;;;;;;;;;;5094420;28;20023;-74
2023/06/01 09:19:03;;;;;;;5.43;1.90;;;;;;;;;;5090323;28;20032;-74
2023/06/01 09:21:29;;;;;;;2.55;1.25;;;;;;;;;;5074196;28;20021;-74
2023/06/01 09:23:55;;;;;;;4.25;1.38;;;;;;;;;;5073757;28;20053;-74
2023/06/01 09:26:26;;;;;;;4.70;2.00;;;;;;;;;;5073928;28;20025;-74
2023/06/01 09:28:55;;;;;;;5.72;2.17;;;;;;;;;;5073700;28;20085;-74
2023/06/01 09:31:40;;;;;;;4.43;2.00;;;;;;;;;;5073651;28;20028;-74
2023/06/01 09:34:09;;;;;;;6.50;1.98;;;;;;;;;;5073439;28;20036;-74
2023/06/01 09:36:35;;;;;;;4.68;1.30;;;;;;;;;;5073467;28;20048;-74
2023/06/01 09:39:09;;;;;;;5.10;1.50;;;;;;;;;;5073395;28;20133;-74
2023/06/01 09:41:45;;;;;;;2.58;1.60;;;;;;;;;;5073312;28;20112;-74
2023/06/01 09:44:11;;;;;;;5.72;1.90;;;;;;;;;;5073336;28;20024;-74
2023/06/01 09:46:47;;;;;;;4.70;1.90;;;;;;;;;;5073296;28;20017;-74
2023/06/01 09:49:19;;;;;;;6.93;2.15;;;;;;;;;;5072409;28;20059;-74
2023/06/01 09:51:45;;;;;;;6.07;1.30;;;;;;;;;;5073200;28;20337;-74
2023/06/01 09:54:21;;;;;;;6.95;2.28;;;;;;;;;;5083470;28;20469;-74
2023/06/01 09:56:47;;;;;;;5.35;2.05;;;;;;;;;;5093369;28;20031;-74
2023/06/01 09:59:14;;;;;;;3.95;1.92;;;;;;;;;;5093387;28;20024;-74
2023/06/01 10:01:41;;;;;;;4.30;1.63;;;;;;;;;;5093187;28;20024;-74
2023/06/01 10:04:07;;;;;;;7.00;2.00;;;;;;;;;;5093107;28;20069;-74
2023/06/01 10:06:36;;;;;;;3.30;1.60;;;;;;;;;;5093428;28;20028;-74
2023/06/01 10:09:04;;;;;;;7.13;2.20;;;;;;;;;;5093528;28;20085;-74
2023/06/01 10:11:30;;;;;;;5.30;2.30;;;;;;;;;;5093600;28;20023;-74
2023/06/01 10:13:57;;;;;;;6.72;2.20;;;;;;;;;;5092855;28;20020;-74
2023/06/01 10:16:23;;;;;;;7.90;1.85;;;;;;;;;;5093117;28;20097;-74
2023/06/01 10:18:50;;;;;;;4.28;1.40;;;;;;;;;;5093032;28;20453;-74
2023/06/01 10:21:17;;;;;;;5.72;1.52;;;;;;;;;;5092989;28;20016;-74
2023/06/01 10:23:43;;;;;;;2.20;1.70;;;;;;;;;;5092880;28;20035;-74
2023/06/01 10:26:12;;;;;;;4.47;1.50;;;;;;;;;;5092895;28;20028;-74
2023/06/01 10:28:38;;;;;;;2.90;0.85;;;;;;;;;;5092938;28;20020;-74
2023/06/01 10:31:23;;;;;;;1.33;1.00;;;;;;;;;;5092874;28;20485;-74
2023/06/01 10:33:55;;;;;;;2.42;0.90;;;;;;;;;;5092741;28;20035;-74
2023/06/01 10:36:21;;;;;;;1.45;0.90;;;;;;;;;;5092779;28;20027;-74
2023/06/01 10:38:47;;;;;;;3.63;1.45;;;;;;;;;;5092692;28;20016;-74
2023/06/01 10:41:27;;;;;;;4.25;1.35;;;;;;;;;;5092739;28;20473;-74
2023/06/01 10:43:53;;;;;;;3.50;1.52;;;;;;;;;;5074547;28;20020;-74
2023/06/01 10:46:40;;;;;;;1.98;0.90;;;;;;;;;;5092632;28;20050;-74
2023/06/01 10:49:06;;;;;;;1.73;1.08;;;;;;;;;;5091817;28;20044;-74
2023/06/01 10:51:32;;;;;;;2.10;0.93;;;;;;;;;;5074409;28;20020;-74
2023/06/01 10:54:17;;;;;;;3.97;1.38;;;;;;;;;;5092419;28;20029;-74
2023/06/01 10:56:44;;;;;;;1.77;0.80;;;;;;;;;;5092518;28;20051;-74
2023/06/01 10:59:13;;;;;;;1.65;1.05;;;;;;;;;;5092765;28;20028;-74
2023/06/01 11:01:40;;;;;;;1.25;0.75;;;;;;;;;;5092681;28;20046;-74
2023/06/01 11:04:07;;;;;;;2.58;1.27;;;;;;;;;;5092884;28;20020;-74
2023/06/01 11:06:35;;;;;;;4.40;1.17;;;;;;;;;;5092497;28;20394;-74
2023/06/01 11:09:05;;;;;;;2.20;1.20;;;;;;;;;;5091102;28;20031;-74
2023/06/01 11:11:52;;;;;;;7.32;2.80;;;;;;;;;;5092878;28;20026;-74
2023/06/01 11:14:19;;;;;;;8.50;2.42;;;;;;;;;;5092310;28;20036;-74
2023/06/01 11:16:47;;;;;;;5.43;1.92;;;;;;;;;;5092571;28;20496;-74
2023/06/01 11:19:26;;;;;;;3.78;2.00;;;;;;;;;;5092599;28;20103;-74
2023/06/01 11:22:05;;;;;;;4.50;1.10;;;;;;;;;;5092397;28;20028;-74
2023/06/01 11:24:33;;;;;;;4.28;1.25;;;;;;;;;;5092320;28;20482;-74
2023/06/01 11:27:01;;;;;;;4.93;1.15;;;;;;;;;;5092455;28;20031;-74
2023/06/01 11:29:28;;;;;;;5.75;1.92;;;;;;;;;;5092393;28;20070;-74
2023/06/01 11:31:58;;;;;;;5.68;1.88;;;;;;;;;;5088206;28;20027;-74
2023/06/01 11:34:31;;;;;;;3.00;1.67;;;;;;;;;;5071778;28;20037;-74
2023/06/01 11:36:58;;;;;;;3.60;1.73;;;;;;;;;;5072262;28;20025;-74
2023/06/01 11:39:24;;;;;;;2.92;1.40;;;;;;;;;;5072033;28;20029;-74
2023/06/01 11:41:51;;;;;;;2.58;1.00;;;;;;;;;;5085036;28;20019;-74
2023/06/01 11:44:17;;;;;;;2.67;1.70;;;;;;;;;;5095933;28;20024;-74
2023/06/01 11:46:53;;;;;;;4.63;1.60;;;;;;;;;;5095868;28;20036;-74
2023/06/01 11:49:19;;;;;;;2.08;1.02;;;;;;;;;;5095894;28;20054;-74
2023/06/01 11:51:45;;;;;;;4.70;1.27;;;;;;;;;;5095711;28;20024;-74
2023/06/01 11:54:11;;;;;;;4.32;1.45;;;;;;;;;;5095572;28;20040;-73
2023/06/01 11:56:40;;;;;;;3.45;1.10;;;;;;;;;;5095597;28;20020;-73
2023/06/01 11:59:11;;;;;;;1.48;1.17;;;;;;;;;;5095722;28;20016;-73
2023/06/01 12:01:37;;;;;;;;;;;;;;;;;;5096438;28;20107;-73
2023/06/01 12:04:04;;;;;;;3.33;1.17;;;;;;;;;;5095373;28;19996;-73
2023/06/01 12:06:31;;;;;;;5.63;1.20;;;;;;;;;;5095236;28;20074;-73
2023/06/01 12:08:57;;;;;;;2.75;1.35;;;;;;;;;;5095203;28;20013;-73
2023/06/01 12:11:27;;;;;;;3.05;1.90;;;;;;;;;;5095281;28;20153;-73
2023/06/01 12:13:56;;;;;;;2.28;1.08;;;;;;;;;;5095115;28;20025;-73
2023/06/01 12:16:22;;;;;;;4.60;2.00;;;;;;;;;;5094701;28;20028;-73
2023/06/01 12:18:49;;;;;;;3.92;1.20;;;;;;;;;;5094069;28;20012;-73
2023/06/01 12:21:17;;;;;;;2.80;1.67;;;;;;;;;;5094847;28;20378;-73
2023/06/01 12:23:43;;;;;;;2.33;1.08;;;;;;;;;;5095485;28;20031;-73
2023/06/01 12:26:09;;;;;;;6.40;1.30;;;;;;;;;;5095043;28;20030;-73
2023/06/01 12:28:47;;;;;;;1.08;0.65;;;;;;;;;;5095037;28;20099;-73
2023/06/01 12:31:15;;;;;;;4.20;1.58;;;;;;;;;;5095038;28;20451;-73
2023/06/01 12:33:41;;;;;;;3.95;1.65;;;;;;;;;;5095105;28;20040;-73
2023/06/01 12:36:08;;;;;;;7.05;2.50;;;;;;;;;;5076771;28;20016;-73
2023/06/01 12:38:38;;;;;;;3.05;1.30;;;;;;;;;;5094844;28;20543;-73
2023/06/01 12:41:09;;;;;;;6.43;3.30;;;;;;;;;;5094742;28;20381;-73
2023/06/01 12:43:36;;;;;;;5.47;1.90;;;;;;;;;;5095111;28;20024;-74
2023/06/01 12:46:03;;;;;;;4.00;1.98;;;;;;;;;;5094637;28;20111;-73
2023/06/01 12:48:37;;;;;;;2.83;1.73;;;;;;;;;;5088342;28;20413;-73
2023/06/01 12:51:03;;;;;;;7.47;2.47;;;;;;;;;;5076944;28;20048;-74
2023/06/01 12:53:29;;;;;;;4.38;1.95;;;;;;;;;;5094120;28;20107;-73
2023/06/01 12:55:55;;;;;;;7.85;2.20;;;;;;;;;;5094474;28;20035;-73
2023/06/01 12:58:21;;;;;;;3.83;1.15;;;;;;;;;;5094400;28;20107;-73
2023/06/01 13:00:48;;;;;;;6.25;1.67;;;;;;;;;;5094366;28;20108;-73
2023/06/01 13:03:15;;;;;;;1.85;1.23;;;;;;;;;;5094123;28;20028;-73
2023/06/01 13:05:45;;;;;;;4.88;2.45;;;;;;;;;;5094004;28;20069;-73
2023/06/01 13:08:11;;;;;;;5.47;1.80;;;;;;;;;;5094281;28;20544;-73
2023/06/01 13:10:37;;;;;;;4.30;1.50;;;;;;;;;;5094399;28;20020;-73
2023/06/01 13:13:03;;;;;;;4.05;1.45;;;;;;;;;;5094125;28;20044;-73
2023/06/01 13:15:29;;;;;;;6.60;2.03;;;;;;;;;;5094092;28;20121;-73
2023/06/01 13:17:56;;;;;;;7.68;2.30;;;;;;;;;;5093948;28;20344;-73
2023/06/01 13:20:22;;;;;;;3.13;2.08;;;;;;;;;;5075208;28;20118;-73
2023/06/01 13:22:48;;;;;;;8.98;2.05;;;;;;;;;;5093926;28;20024;-73
2023/06/01 13:25:14;;;;;;;5.63;2.00;;;;;;;;;;5093738;28;20024;-73
2023/06/01 13:27:40;;;;;;;9.55;1.90;;;;;;;;;;5093885;28;20024;-73
2023/06/01 13:30:08;;;;;;;4.88;2.15;;;;;;;;;;5093360;28;20020;-73
2023/06/01 13:32:34;;;;;;;3.45;1.77;;;;;;;;;;5094060;28;20016;-73
2023/06/01 13:35:00;;;;;;;2.95;1.52;;;;;;;;;;5093559;28;20055;-74
2023/06/01 13:37:26;;;;;;;9.48;1.70;;;;;;;;;;5094145;28;20493;-74
2023/06/01 13:39:53;;;;;;;6.75;1.60;;;;;;;;;;5093016;28;20020;-74
2023/06/01 13:42:19;;;;;;;6.05;1.88;;;;;;;;;;5092747;28;20107;-74
2023/06/01 13:44:46;;;;;;;4.90;2.13;;;;;;;;;;5092546;28;20103;-74
2023/06/01 13:47:16;;;;;;;3.63;1.45;;;;;;;;;;5092990;28;20024;-74
2023/06/01 13:49:42;;;;;;;5.55;1.40;;;;;;;;;;5109341;28;20055;-74
2023/06/01 13:52:08;;;;;;;3.47;1.15;;;;;;;;;;5112702;28;20016;-74
2023/06/01 13:54:35;;;;;;;3.47;1.33;;;;;;;;;;5093373;28;20387;-74
2023/06/01 13:57:02;;;;;;;3.03;1.25;;;;;;;;;;5092945;28;20084;-74
2023/06/01 13:59:30;;;;;;;5.18;1.33;;;;;;;;;;5092913;28;20554;-74
2023/06/01 14:01:56;;;;;;;4.50;1.65;;;;;;;;;;5092761;28;20617;-74
2023/06/01 14:04:22;;;;;;;4.35;1.35;;;;;;;;;;5091642;28;20028;-74
2023/06/01 14:06:50;;;;;;;6.05;1.58;;;;;;;;;;5092092;28;20399;-74
2023/06/01 14:09:16;;;;;;;5.85;1.48;;;;;;;;;;5093025;28;20012;-74
2023/06/01 14:11:42;;;;;;;4.38;1.60;;;;;;;;;;5092006;28;20028;-74
2023/06/01 14:14:08;;;;;;;2.85;1.40;;;;;;;;;;5091775;28;20131;-74
2023/06/01 14:16:34;;;;;;;3.63;2.10;;;;;;;;;;5091850;28;20028;-74
2023/06/01 14:19:00;;;;;;;2.58;1.00;;;;;;;;;;5092375;28;20020;-74
2023/06/01 14:21:26;;;;;;;0.90;0.88;;;;;;;;;;5092304;28;20366;-74
2023/06/01 14:23:52;;;;;;;3.45;1.90;;;;;;;;;;5090159;28;20036;-74
2023/06/01 14:26:18;;;;;;;5.93;2.03;;;;;;;;;;5071732;28;20374;-73
2023/06/01 14:28:44;;;;;;;5.03;1.52;;;;;;;;;;5077322;28;20060;-73
2023/06/01 14:31:10;;;;;;;6.53;1.65;;;;;;;;;;5087710;28;20020;-74
2023/06/01 14:33:43;;;;;;;4.82;1.40;;;;;;;;;;5083672;28;20028;-74
2023/06/01 14:36:09;;;;;;;2.40;1.35;;;;;;;;;;5089677;28;20098;-74
2023/06/01 14:38:35;;;;;;;5.13;1.63;;;;;;;;;;5091649;28;20048;-74
2023/06/01 14:41:01;;;;;;;2.92;1.50;;;;;;;;;;5091679;28;20055;-74
2023/06/01 14:43:27;;;;;;;2.17;1.25;;;;;;;;;;5099245;28;20115;-74
2023/06/01 14:45:53;;;;;;;2.28;1.00;;;;;;;;;;5108250;28;20024;-73